Time;durP1;ratioP1;P1;durP2;ratioP2;P2;SDS_P1;SDS_P2;PMS_P1;PMS_P2;Temp;Humidity;BMP_temperature;BMP_pressure;BME280_temperature;BME280_humidity;BME280_pressure;Samples;Min_cycle;Max_cycle;Signal;HPM_P1;HPM_P2
2024/03/11 00:01:07;;;;;;;;;32.67;29.33;;;;;10.37;100.00;98642.63;6275909;20;3584630;-48
2024/03/11 00:03:37;;;;;;;;;29.00;27.67;;;;;10.16;100.00;98639.75;6266916;20;3600298;-48
2024/03/11 00:06:07;;;;;;;;;34.33;28.33;;;;;10.17;100.00;98641.47;6303736;20;3610686;-46
2024/03/11 00:08:36;;;;;;;;;32.00;29.33;;;;;10.18;100.00;98636.97;6272456;20;3587759;-49
2024/03/11 00:11:06;;;;;;;;;27.67;27.67;;;;;10.15;100.00;98632.69;6270602;20;2860898;-48
2024/03/11 00:13:35;;;;;;;;;36.00;30.00;;;;;10.15;100.00;98635.38;6305964;20;3594062;-51
2024/03/11 00:16:06;;;;;;;;;37.67;33.33;;;;;10.27;100.00;98636.25;6270116;20;3606559;-49
2024/03/11 00:18:35;;;;;;;;;34.00;30.00;;;;;10.19;100.00;98647.56;6302193;20;2837772;-49
2024/03/11 00:21:04;;;;;;;;;28.00;28.00;;;;;10.28;100.00;98652.25;6275287;20;3602378;-51
2024/03/11 00:23:33;;;;;;;;;33.67;30.00;;;;;10.22;100.00;98639.28;6271478;20;3579463;-51
2024/03/11 00:26:04;;;;;;;;;37.00;30.67;;;;;10.22;100.00;98635.75;6269691;20;3597167;-48
2024/03/11 00:28:33;;;;;;;;;31.33;28.00;;;;;10.20;100.00;98641.22;6307084;20;3618127;-48
2024/03/11 00:31:03;;;;;;;;;34.00;30.67;;;;;10.24;100.00;98645.41;6271516;20;2854940;-48
2024/03/11 00:33:31;;;;;;;;;31.67;30.33;;;;;10.24;100.00;98644.53;6304774;20;3574238;-50
2024/03/11 00:36:03;;;;;;;;;32.33;30.00;;;;;10.07;100.00;98640.47;6271650;20;3582640;-48
2024/03/11 00:38:32;;;;;;;;;32.33;30.00;;;;;10.13;100.00;98644.50;6306437;20;3586745;-49
2024/03/11 00:41:02;;;;;;;;;31.33;27.67;;;;;10.10;100.00;98640.22;6269900;20;2852605;-47
2024/03/11 00:43:31;;;;;;;;;38.50;32.00;;;;;10.20;100.00;98641.22;6302968;20;2853410;-48
2024/03/11 00:46:01;;;;;;;;;33.67;28.67;;;;;10.15;100.00;98635.38;6273691;20;2867068;-49
2024/03/11 00:48:29;;;;;;;;;33.33;29.67;;;;;10.20;100.00;98641.22;6310459;20;3601311;-50
2024/03/11 00:50:59;;;;;;;;;35.33;30.67;;;;;10.16;100.00;98647.78;6279738;20;3597128;-55
2024/03/11 00:53:29;;;;;;;;;35.00;29.33;;;;;10.26;100.00;98645.25;6276056;20;3595048;-51
2024/03/11 00:55:58;;;;;;;;;36.00;33.00;;;;;10.16;100.00;98650.47;6312130;20;3587925;-52
2024/03/11 00:58:28;;;;;;;;;29.67;28.67;;;;;10.25;100.00;98655.16;6278988;20;3600258;-55
2024/03/11 01:00:56;;;;;;;;;31.67;29.33;;;;;10.19;100.00;98650.25;6281568;20;3592038;-50
2024/03/11 01:03:26;;;;;;;;;33.33;30.00;;;;;10.30;100.00;98650.31;6275602;20;3596090;-49
2024/03/11 01:05:56;;;;;;;;;31.33;29.67;;;;;10.33;100.00;98641.19;6310192;20;3598674;-50
2024/03/11 01:08:29;;;;;;;;;33.00;30.33;;;;;10.49;100.00;98651.56;6275890;20;3610664;-50
2024/03/11 01:10:58;;;;;;;;;32.33;30.00;;;;;10.44;100.00;98659.13;6309996;20;3589852;-49
2024/03/11 01:13:27;;;;;;;;;30.00;29.67;;;;;10.38;100.00;98656.94;6278958;20;3586708;-48
2024/03/11 01:15:56;;;;;;;;;32.00;30.00;;;;;10.21;100.00;98659.03;6275632;20;2852431;-47
2024/03/11 01:18:25;;;;;;;;;29.33;28.00;;;;;10.19;100.00;98649.38;6310410;20;3590984;-48
2024/03/11 01:20:54;;;;;;;;;33.00;31.00;;;;;10.29;100.00;98659.34;6276993;20;3595171;-49
2024/03/11 01:23:23;;;;;;;;;32.00;30.00;;;;;10.38;100.00;98651.56;6305924;20;3589891;-50
2024/03/11 01:25:52;;;;;;;;;33.67;31.33;;;;;10.41;100.00;98660.22;6280841;20;3589890;-53
2024/03/11 01:28:21;;;;;;;;;33.00;30.50;;;;;10.61;100.00;98655.13;6274013;20;2848658;-49
2024/03/11 01:30:50;;;;;;;;;29.67;29.33;;;;;10.47;100.00;98653.50;6277402;20;3593738;-49
2024/03/11 01:33:19;;;;;;;;;37.67;31.00;;;;;10.32;100.00;98661.78;6278197;20;3609848;-49
2024/03/11 01:35:48;;;;;;;;;32.33;28.33;;;;;10.11;100.00;98648.16;6310202;20;3579416;-50
2024/03/11 01:38:18;;;;;;;;;33.00;30.00;;;;;10.07;100.00;98648.50;6274150;20;2837910;-51
2024/03/11 01:40:46;;;;;;;;;34.00;31.67;;;;;9.97;100.00;98639.44;6310266;20;3596162;-48
2024/03/11 01:43:16;;;;;;;;;36.67;30.33;;;;;10.38;100.00;98649.72;6274973;20;2853503;-48
2024/03/11 01:45:44;;;;;;;;;35.33;30.00;;;;;10.49;100.00;98651.56;6309206;20;3594103;-52
2024/03/11 01:48:13;;;;;;;;;33.00;30.00;;;;;10.42;100.00;98653.88;6275728;20;3585708;-47
2024/03/11 01:50:43;;;;;;;;;34.67;30.00;;;;;9.92;100.00;98652.34;6270337;20;2850293;-49
2024/03/11 01:53:12;;;;;;;;;35.33;30.33;;;;;10.18;100.00;98645.00;6307656;20;3599227;-51
2024/03/11 01:55:44;;;;;;;;;34.33;30.00;;;;;10.18;100.00;98653.91;6271101;20;3604456;-48
2024/03/11 01:58:16;;;;;;;;;33.33;30.33;;;;;9.98;100.00;98641.16;6303653;20;3597176;-52
2024/03/11 02:00:45;;;;;;;;;30.50;30.00;;;;;10.19;100.00;98652.94;6276556;20;2847196;-49
2024/03/11 02:03:14;;;;;;;;;32.67;30.33;;;;;10.23;100.00;98654.41;6274879;20;3588883;-49
2024/03/11 02:05:44;;;;;;;;;33.50;28.50;;;;;10.05;100.00;98650.44;6272345;20;2865441;-50
2024/03/11 02:08:13;;;;;;;;;30.00;28.50;;;;;10.04;100.00;98643.38;6276712;20;2845138;-48
2024/03/11 02:10:43;;;;;;;;;31.33;30.00;;;;;9.85;100.00;98647.47;6277163;20;3591994;-53
2024/03/11 02:13:12;;;;;;;;;33.50;30.00;;;;;10.28;100.00;98652.25;6273572;20;2839877;-48
2024/03/11 02:15:42;;;;;;;;;39.00;33.00;;;;;10.38;100.00;98657.78;6272025;20;3605451;-52
2024/03/11 02:18:11;;;;;;;;;36.00;32.67;;;;;10.17;100.00;98651.34;6304842;20;2856566;-50
2024/03/11 02:20:41;;;;;;;;;30.00;28.33;;;;;10.10;100.00;98653.63;6308390;20;3596241;-50
2024/03/11 02:23:11;;;;;;;;;49.33;38.00;;;;;9.59;100.00;98645.88;6276919;20;2856727;-46
2024/03/11 02:25:40;;;;;;;;;34.67;30.67;;;;;9.80;100.00;98646.94;6303355;20;3591911;-48
2024/03/11 02:28:09;;;;;;;;;40.33;34.00;;;;;9.65;100.00;98640.91;6272586;20;2853581;-48
2024/03/11 02:30:38;;;;;;;;;34.33;29.00;;;;;9.78;100.00;98650.72;6305992;20;3581512;-46
2024/03/11 02:33:08;;;;;;;;;41.00;33.00;;;;;10.08;100.00;98642.16;6271954;20;2853551;-50
2024/03/11 02:35:37;;;;;;;;;40.00;30.00;;;;;10.25;100.00;98646.25;6303978;20;3615894;-47
2024/03/11 02:38:06;;;;;;;;;27.33;27.33;;;;;9.78;100.00;98640.00;6277649;20;3595125;-48
2024/03/11 02:40:38;;;;;;;;;34.00;30.00;;;;;9.54;100.00;98640.84;6274094;20;2854572;-47
2024/03/11 02:43:07;;;;;;;;;38.33;32.00;;;;;9.58;100.00;98633.44;6308725;20;3596206;-46
2024/03/11 02:45:37;;;;;;;;;31.00;27.33;;;;;9.65;100.00;98624.81;6271408;20;2865073;-51
2024/03/11 02:48:07;;;;;;;;;34.67;30.67;;;;;9.59;100.00;98624.44;6308134;20;3575398;-50
2024/03/11 02:50:37;;;;;;;;;34.33;31.33;;;;;9.60;100.00;98621.63;6272409;20;2856582;-51
2024/03/11 02:53:08;;;;;;;;;35.67;31.67;;;;;9.86;100.00;98637.59;6308546;20;3621514;-49
2024/03/11 02:55:40;;;;;;;;;32.00;31.00;;;;;9.75;100.00;98633.03;6273085;20;2835823;-48
2024/03/11 02:58:09;;;;;;;;;35.00;28.67;;;;;9.72;100.00;98633.25;6273405;20;2850467;-50
2024/03/11 03:00:39;;;;;;;;;40.33;33.00;;;;;9.68;100.00;98626.41;6303787;20;3606504;-47
2024/03/11 03:03:07;;;;;;;;;32.67;30.00;;;;;9.72;100.00;98635.94;6308779;20;3584685;-50
2024/03/11 03:05:37;;;;;;;;;37.00;31.00;;;;;9.75;100.00;98625.00;6270497;20;2860841;-51
2024/03/11 03:08:06;;;;;;;;;32.00;30.00;;;;;9.65;100.00;98621.28;6308643;20;3596193;-53
2024/03/11 03:10:35;;;;;;;;;32.50;31.00;;;;;9.62;100.00;98629.56;6273464;20;2850336;-53
2024/03/11 03:13:04;;;;;;;;;33.00;30.00;;;;;9.66;100.00;98628.34;6273340;20;2847312;-48
2024/03/11 03:15:33;;;;;;;;;32.50;31.00;;;;;9.65;100.00;98624.81;6271128;20;2842494;-52
2024/03/11 03:18:05;;;;;;;;;37.00;31.00;;;;;9.71;100.00;98633.38;6273174;20;2870273;-50
2024/03/11 03:20:35;;;;;;;;;32.33;30.00;;;;;9.77;100.00;98638.25;6305256;20;3604483;-50
2024/03/11 03:23:06;;;;;;;;;30.33;29.33;;;;;9.78;100.00;98637.31;6271430;20;3596124;-48
2024/03/11 03:25:35;;;;;;;;;31.67;29.67;;;;;9.76;100.00;98648.13;6305396;20;3595099;-52
2024/03/11 03:28:05;;;;;;;;;33.50;31.00;;;;;9.71;100.00;98644.94;6270409;20;2845210;-49
2024/03/11 03:30:35;;;;;;;;;35.33;31.00;;;;;9.65;100.00;98643.56;6272989;20;2855764;-51
2024/03/11 03:33:04;;;;;;;;;31.33;30.00;;;;;9.60;100.00;98636.84;6305294;20;3597202;-48
2024/03/11 03:35:33;;;;;;;;;32.50;29.00;;;;;9.50;100.00;98630.47;6269878;20;2843009;-49
2024/03/11 03:38:03;;;;;;;;;34.33;32.00;;;;;9.59;100.00;98632.47;6277049;20;3584607;-47
2024/03/11 03:40:32;;;;;;;;;36.00;32.67;;;;;9.77;100.00;98633.78;6272274;20;2847177;-52
2024/03/11 03:43:03;;;;;;;;;46.00;39.00;;;;;9.66;100.00;98626.53;6303733;20;2852370;-47
2024/03/11 03:45:33;;;;;;;;;48.00;38.67;;;;;9.59;100.00;98637.84;6266822;20;2871251;-51
2024/03/11 03:48:03;;;;;;;;;56.00;44.33;;;;;9.60;100.00;98631.50;6303778;20;3622133;-48
2024/03/11 03:50:33;;;;;;;;;52.33;42.67;;;;;9.67;100.00;98635.44;6303177;20;2864977;-50
2024/03/11 03:53:03;;;;;;;;;40.00;33.33;;;;;9.51;100.00;98632.19;6304313;20;3613029;-50
2024/03/11 03:55:39;;;;;;;;;48.00;39.00;;;;;9.64;100.00;98627.63;6270737;20;2859707;-49
2024/03/11 03:58:07;;;;;;;;;67.67;51.00;;;;;9.56;100.00;98627.34;6302502;20;3625263;-46
2024/03/11 04:00:39;;;;;;;;;71.50;54.75;;;;;9.60;100.00;98623.44;6274078;20;3640961;-49
2024/03/11 04:03:08;;;;;;;;;64.33;49.33;;;;;9.67;100.00;98632.75;6302442;20;3628453;-49
2024/03/11 04:05:37;;;;;;;;;38.00;31.00;;;;;9.67;100.00;98638.13;6302454;20;2852382;-50
2024/03/11 04:08:07;;;;;;;;;89.25;79.50;;;;;9.77;100.00;98643.63;6275212;20;4405498;-47
2024/03/11 04:10:36;;;;;;;;;57.33;46.67;;;;;9.65;100.00;98643.56;6304058;20;3627388;-49
2024/03/11 04:13:06;;;;;;;;;50.00;41.00;;;;;9.77;100.00;98652.53;6302281;20;2839891;-46
2024/03/11 04:15:40;;;;;;;;;50.00;41.67;;;;;9.66;100.00;98636.38;6269290;20;2862950;-51
2024/03/11 04:18:12;;;;;;;;;56.67;46.33;;;;;9.58;100.00;98630.75;6301042;20;3620091;-50
2024/03/11 04:20:42;;;;;;;;;42.00;34.00;;;;;9.61;100.00;98635.88;6311103;20;3606514;-47
2024/03/11 04:23:12;;;;;;;;;47.67;39.67;;;;;9.65;100.00;98634.69;6278278;20;2863976;-48
2024/03/11 04:25:41;;;;;;;;;46.33;37.33;;;;;9.56;100.00;98624.66;6307178;20;2847207;-50
2024/03/11 04:28:13;;;;;;;;;51.67;41.00;;;;;9.71;100.00;98628.84;6309346;20;3619038;-49
2024/03/11 04:30:44;;;;;;;;;57.67;46.67;;;;;9.53;100.00;98624.88;6308035;20;3621133;-51
2024/03/11 04:33:16;;;;;;;;;36.00;33.00;;;;;9.33;100.00;98619.19;6310328;20;3558666;-48
2024/03/11 04:35:48;;;;;;;;;51.00;41.67;;;;;9.47;100.00;98619.97;6305430;20;2859724;-46
2024/03/11 04:38:19;;;;;;;;;49.00;38.00;;;;;9.54;100.00;98618.56;6309708;20;3612767;-49
2024/03/11 04:40:48;;;;;;;;;39.00;34.00;;;;;9.31;100.00;98609.53;6308892;20;3588800;-51
2024/03/11 04:43:18;;;;;;;;;38.67;33.67;;;;;9.32;100.00;98617.47;6275945;20;2871261;-47
2024/03/11 04:45:47;;;;;;;;;39.33;35.00;;;;;9.45;100.00;98612.94;6306789;20;2859759;-51
2024/03/11 04:48:19;;;;;;;;;30.00;30.00;;;;;9.40;100.00;98615.09;6309525;20;3597258;-50
2024/03/11 04:50:48;;;;;;;;;36.00;32.00;;;;;9.36;100.00;98602.88;6274404;20;2844062;-46
2024/03/11 04:53:18;;;;;;;;;31.33;28.67;;;;;9.29;100.00;98609.63;6277248;20;3591061;-49
2024/03/11 04:55:46;;;;;;;;;38.67;31.67;;;;;9.41;100.00;98606.06;6310676;20;3595095;-49
2024/03/11 04:58:15;;;;;;;;;46.00;38.50;;;;;9.28;100.00;98618.66;6276039;20;2852878;-46
2024/03/11 05:00:45;;;;;;;;;48.00;38.67;;;;;9.36;100.00;98618.94;6277003;20;2869360;-49
2024/03/11 05:03:13;;;;;;;;;54.33;42.00;;;;;9.36;100.00;98613.59;6311545;20;3611702;-49
2024/03/11 05:05:43;;;;;;;;;56.00;43.00;;;;;9.55;100.00;98612.22;6275214;20;2875324;-46
2024/03/11 05:08:13;;;;;;;;;54.00;43.00;;;;;9.52;100.00;98615.13;6306837;20;2867179;-48
2024/03/11 05:10:42;;;;;;;;;41.67;36.00;;;;;9.46;100.00;98619.13;6308609;20;3589926;-47
2024/03/11 05:13:11;;;;;;;;;47.50;39.00;;;;;9.48;100.00;98617.19;6274819;20;2854484;-46
2024/03/11 05:15:49;;;;;;;;;51.67;42.67;;;;;9.55;100.00;98614.91;6275089;20;3611734;-47
2024/03/11 05:18:22;;;;;;;;;50.00;42.00;;;;;9.56;100.00;98619.31;6304678;20;2853459;-45
2024/03/11 05:20:52;;;;;;;;;50.00;39.33;;;;;9.55;100.00;98625.63;6278520;20;2859655;-49
2024/03/11 05:23:20;;;;;;;;;45.67;35.67;;;;;9.59;100.00;98629.78;6311834;20;3619905;-47
2024/03/11 05:25:51;;;;;;;;;48.67;38.33;;;;;9.61;100.00;98619.78;6273209;20;2860695;-47
2024/03/11 05:28:20;;;;;;;;;46.67;40.33;;;;;9.45;100.00;98612.03;6307468;20;2864900;-46
2024/03/11 05:30:50;;;;;;;;;48.67;39.00;;;;;9.35;100.00;98624.44;6305665;20;3619022;-48
2024/03/11 05:33:20;;;;;;;;;51.50;42.00;;;;;9.62;100.00;98629.56;6304900;20;2853641;-46
2024/03/11 05:35:50;;;;;;;;;43.00;34.67;;;;;9.73;100.00;98636.81;6276274;20;3630455;-48
2024/03/11 05:38:19;;;;;;;;;40.50;36.00;;;;;9.70;100.00;98632.53;6306439;20;2840603;-46
2024/03/11 05:40:49;;;;;;;;;58.00;46.00;;;;;9.62;100.00;98621.53;6275096;20;3635678;-48
2024/03/11 05:43:19;;;;;;;;;49.00;39.33;;;;;9.58;100.00;98615.50;6307100;20;3620187;-48
2024/03/11 05:45:48;;;;;;;;;52.67;42.33;;;;;9.65;100.00;98618.59;6303293;20;3611734;-46
2024/03/11 05:48:18;;;;;;;;;48.00;40.00;;;;;9.48;100.00;98622.56;6307688;20;2848245;-48
2024/03/11 05:50:48;;;;;;;;;44.50;37.00;;;;;9.53;100.00;98639.16;6275832;20;2847274;-48
2024/03/11 05:53:19;;;;;;;;;44.67;36.00;;;;;9.67;100.00;98640.78;6276060;20;2856631;-47
2024/03/11 05:55:48;;;;;;;;;46.33;38.00;;;;;9.53;100.00;98635.59;6311096;20;3600286;-45
2024/03/11 05:58:17;;;;;;;;;44.00;39.00;;;;;9.67;100.00;98633.59;6274661;20;2843025;-51
2024/03/11 06:00:48;;;;;;;;;55.00;45.00;;;;;9.50;100.00;98628.63;6275059;20;3611793;-45
2024/03/11 06:03:17;;;;;;;;;42.33;36.67;;;;;9.54;100.00;98627.44;6302838;20;2848385;-47
2024/03/11 06:05:48;;;;;;;;;43.00;38.00;;;;;9.64;100.00;98635.66;6300302;20;2857819;-46
2024/03/11 06:08:18;;;;;;;;;37.67;33.00;;;;;9.72;100.00;98633.25;6303399;20;2861909;-47
2024/03/11 06:10:47;;;;;;;;;31.00;25.00;;;;;9.79;100.00;98639.00;6308135;20;3586788;-47
2024/03/11 06:13:17;;;;;;;;;38.00;32.00;;;;;9.83;100.00;98644.03;6269353;20;3609680;-43
2024/03/11 06:15:46;;;;;;;;;35.33;29.67;;;;;9.89;100.00;98648.06;6307884;20;3591967;-46
2024/03/11 06:18:14;;;;;;;;;33.00;29.00;;;;;9.87;100.00;98645.53;6272027;20;2854504;-45
2024/03/11 06:20:43;;;;;;;;;41.00;35.00;;;;;9.79;100.00;98642.53;6273562;20;2857599;-46
2024/03/11 06:23:13;;;;;;;;;42.00;34.33;;;;;9.84;100.00;98643.03;6271465;20;2845206;-45
2024/03/11 06:25:42;;;;;;;;;40.00;34.33;;;;;10.20;100.00;98646.59;6301192;20;3592957;-44
2024/03/11 06:28:11;;;;;;;;;36.33;32.33;;;;;10.12;100.00;98649.00;6272214;20;2840904;-45
2024/03/11 06:30:46;;;;;;;;;31.67;30.67;;;;;10.15;100.00;98642.56;6306403;20;3576407;-44
2024/03/11 06:33:16;;;;;;;;;34.00;32.00;;;;;10.05;100.00;98647.75;6268804;20;2883640;-45
2024/03/11 06:35:47;;;;;;;;;33.33;31.33;;;;;10.02;100.00;98648.00;6273835;20;2858753;-46
2024/03/11 06:38:16;;;;;;;;;35.33;33.00;;;;;10.11;100.00;98652.69;6304260;20;3589902;-44
2024/03/11 06:40:44;;;;;;;;;25.00;24.00;;;;;10.14;100.00;98651.56;6268539;20;2500332;-46
2024/03/11 06:43:13;;;;;;;;;38.33;32.00;;;;;10.26;100.00;98656.00;6273165;20;2848269;-44
2024/03/11 06:45:42;;;;;;;;;39.00;32.33;;;;;10.14;100.00;98654.25;6307071;20;3617988;-46
2024/03/11 06:48:11;;;;;;;;;35.33;31.00;;;;;10.14;100.00;98660.50;6273966;20;3591934;-45
2024/03/11 06:50:41;;;;;;;;;41.33;32.67;;;;;10.48;100.00;98676.72;6273983;20;3617960;-48
2024/03/11 06:53:10;;;;;;;;;38.00;32.00;;;;;10.43;100.00;98668.16;6307627;20;3608582;-46
2024/03/11 06:55:39;;;;;;;;;33.50;30.50;;;;;10.46;100.00;98673.28;6273240;20;2844034;-46
2024/03/11 06:58:09;;;;;;;;;35.00;32.67;;;;;10.31;100.00;98665.44;6273305;20;3615000;-45
2024/03/11 07:00:39;;;;;;;;;35.67;31.33;;;;;10.46;100.00;98678.66;6304042;20;3574329;-45
2024/03/11 07:03:08;;;;;;;;;36.67;31.67;;;;;10.31;100.00;98676.16;6306456;20;3600343;-48
2024/03/11 07:05:37;;;;;;;;;32.00;30.00;;;;;10.39;100.00;98675.56;6272529;20;2839922;-46
2024/03/11 07:08:09;;;;;;;;;37.50;32.00;;;;;10.40;100.00;98671.06;6272099;20;3459679;-47
2024/03/11 07:10:37;;;;;;;;;37.00;32.00;;;;;10.48;100.00;98671.34;6307811;20;3593016;-47
2024/03/11 07:13:07;;;;;;;;;37.00;33.00;;;;;10.40;100.00;98676.41;6272015;20;2853494;-45
2024/03/11 07:15:36;;;;;;;;;38.33;32.33;;;;;10.43;100.00;98668.16;6307343;20;3613833;-47
2024/03/11 07:18:05;;;;;;;;;39.50;33.50;;;;;10.33;100.00;98668.84;6275693;20;2842988;-48
2024/03/11 07:20:36;;;;;;;;;38.00;32.33;;;;;10.37;100.00;98669.47;6273689;20;2867990;-45
2024/03/11 07:23:08;;;;;;;;;36.33;33.33;;;;;10.39;100.00;98664.00;6303956;20;2860884;-44
2024/03/11 07:25:38;;;;;;;;;43.50;37.00;;;;;10.41;100.00;98675.47;6303693;20;2844053;-46
2024/03/11 07:28:07;;;;;;;;;47.50;40.00;;;;;10.32;100.00;98672.53;6272092;20;2852547;-46
2024/03/11 07:30:36;;;;;;;;;44.33;38.00;;;;;10.41;100.00;98667.41;6275131;20;3598302;-44
2024/03/11 07:33:14;;;;;;;;;39.00;34.00;;;;;10.46;100.00;98670.59;6273008;20;2870247;-45
2024/03/11 07:35:44;;;;;;;;;41.00;32.33;;;;;10.32;100.00;98669.84;6305628;20;2862824;-47
2024/03/11 07:38:14;;;;;;;;;42.00;35.00;;;;;10.31;100.00;98660.06;6307367;20;3622171;-44
2024/03/11 07:40:45;;;;;;;;;42.33;33.67;;;;;10.28;100.00;98656.78;6274425;20;3622131;-45
2024/03/11 07:43:15;;;;;;;;;38.50;33.00;;;;;10.28;100.00;98673.72;6306785;20;2854459;-46
2024/03/11 07:45:44;;;;;;;;;46.33;35.00;;;;;10.46;100.00;98689.38;6277728;20;3598176;-45
2024/03/11 07:48:13;;;;;;;;;36.00;31.00;;;;;10.58;100.00;98684.88;6271908;20;2847197;-45
2024/03/11 07:50:42;;;;;;;;;40.00;33.00;;;;;10.48;100.00;98690.13;6274591;20;3609606;-48
2024/03/11 07:53:12;;;;;;;;;41.67;34.67;;;;;10.45;100.00;98693.03;6305874;20;3594081;-45
2024/03/11 07:55:42;;;;;;;;;39.00;34.67;;;;;10.72;100.00;98701.63;6277487;20;3577340;-48
2024/03/11 07:58:11;;;;;;;;;34.00;30.00;;;;;10.70;100.00;98702.72;6314343;20;3598170;-45
2024/03/11 08:00:42;;;;;;;;;36.67;33.33;;;;;10.70;100.00;98694.69;6281091;20;2852475;-45
2024/03/11 08:03:10;;;;;;;;;37.50;34.00;;;;;10.62;100.00;98694.41;6316035;20;2668001;-45
2024/03/11 08:05:39;;;;;;;;;37.50;34.00;;;;;10.61;100.00;98698.94;6279655;20;2839915;-45
2024/03/11 08:08:08;;;;;;;;;37.00;33.50;;;;;10.54;100.00;98700.38;6278595;20;2859692;-47
2024/03/11 08:10:37;;;;;;;;;35.67;31.33;;;;;10.57;100.00;98699.28;6279440;20;3593037;-45
2024/03/11 08:13:11;;;;;;;;;36.33;31.67;;;;;10.75;100.00;98713.97;6278422;20;3592963;-46
2024/03/11 08:15:40;;;;;;;;;39.33;34.00;;;;;10.91;100.00;98719.00;6312194;20;3596160;-46
2024/03/11 08:18:10;;;;;;;;;40.33;32.67;;;;;10.85;100.00;98714.09;6281376;20;2864953;-45
2024/03/11 08:20:39;;;;;;;;;36.67;32.33;;;;;10.67;100.00;98719.94;6311733;20;3609922;-46
2024/03/11 08:23:09;;;;;;;;;38.00;33.33;;;;;10.76;100.00;98729.94;6281047;20;3619084;-45
2024/03/11 08:25:44;;;;;;;;;40.33;33.67;;;;;10.76;100.00;98729.09;6278512;20;3608754;-44
2024/03/11 08:28:14;;;;;;;;;42.33;33.33;;;;;10.67;100.00;98719.94;6275265;20;3602394;-45
2024/03/11 08:30:45;;;;;;;;;39.67;33.33;;;;;10.57;100.00;98718.94;6311762;20;3605551;-47
2024/03/11 08:33:16;;;;;;;;;39.33;35.33;;;;;10.63;100.00;98705.03;6279503;20;2853404;-46
2024/03/11 08:35:45;;;;;;;;;30.00;30.00;;;;;10.49;100.00;98697.19;6310417;20;3584661;-48
2024/03/11 08:38:14;;;;;;;;;38.50;35.00;;;;;10.72;100.00;98692.72;6277447;20;2851401;-45
2024/03/11 08:40:43;;;;;;;;;42.33;33.67;;;;;10.53;100.00;98685.22;6281344;20;3607551;-47
2024/03/11 08:43:12;;;;;;;;;38.00;34.00;;;;;10.56;100.00;98685.03;6279608;20;2847182;-45
2024/03/11 08:45:41;;;;;;;;;36.33;33.00;;;;;10.64;100.00;98677.22;6281421;20;3582576;-47
2024/03/11 08:48:13;;;;;;;;;36.33;32.00;;;;;10.77;100.00;98669.91;6309923;20;2862870;-46
2024/03/11 08:50:43;;;;;;;;;42.33;34.33;;;;;10.79;100.00;98674.28;6315151;20;3598333;-46
2024/03/11 08:53:12;;;;;;;;;34.00;32.00;;;;;10.93;100.00;98682.13;6278723;20;2854517;-47
2024/03/11 08:55:42;;;;;;;;;36.33;32.67;;;;;10.78;100.00;98673.44;6310121;20;3596090;-49
2024/03/11 08:58:12;;;;;;;;;36.33;32.00;;;;;10.71;100.00;98675.75;6276349;20;2841003;-46
2024/03/11 09:00:41;;;;;;;;;44.67;35.00;;;;;10.81;100.00;98670.50;6313339;20;3603424;-47
2024/03/11 09:03:11;;;;;;;;;40.33;34.67;;;;;10.72;100.00;98668.56;6279758;20;3599322;-46
2024/03/11 09:05:41;;;;;;;;;36.67;32.33;;;;;10.72;100.00;98664.06;6280906;20;3595233;-45
2024/03/11 09:08:10;;;;;;;;;43.33;35.33;;;;;10.76;100.00;98678.94;6276419;20;3596124;-44
2024/03/11 09:10:39;;;;;;;;;34.33;31.33;;;;;11.01;100.00;98687.75;6313144;20;3607666;-45
2024/03/11 09:13:08;;;;;;;;;39.00;33.00;;;;;11.17;100.00;98696.28;6278257;20;2844072;-49
2024/03/11 09:15:37;;;;;;;;;39.67;35.00;;;;;11.13;100.00;98704.72;6281099;20;3580462;-46
2024/03/11 09:18:06;;;;;;;;;42.00;35.00;;;;;10.98;100.00;98706.81;6279835;20;3616988;-45
2024/03/11 09:20:35;;;;;;;;;43.00;35.00;;;;;11.11;100.00;98706.66;6278575;20;2859718;-45
2024/03/11 09:23:07;;;;;;;;;38.00;33.67;;;;;11.06;100.00;98701.66;6311809;20;3590972;-46
2024/03/11 09:25:36;;;;;;;;;31.00;29.33;;;;;10.88;100.00;98701.28;6276037;20;2855503;-47
2024/03/11 09:28:08;;;;;;;;;39.33;33.67;;;;;10.97;100.00;98695.19;6312325;20;3587772;-45
2024/03/11 09:30:41;;;;;;;;;28.67;25.67;;;;;10.87;100.00;98701.41;6275826;20;3596665;-45
2024/03/11 09:33:11;;;;;;;;;44.33;35.00;;;;;11.12;100.00;98703.00;6313439;20;3606549;-45
2024/03/11 09:35:41;;;;;;;;;34.67;32.00;;;;;11.12;100.00;98703.00;6279544;20;3595052;-48
2024/03/11 09:38:12;;;;;;;;;37.00;33.00;;;;;11.22;100.00;98709.38;6275949;20;2837916;-48
2024/03/11 09:40:42;;;;;;;;;38.67;32.00;;;;;11.09;100.00;98720.22;6274847;20;2860736;-47
2024/03/11 09:43:15;;;;;;;;;44.67;35.33;;;;;11.11;100.00;98709.34;6309943;20;2858657;-46
2024/03/11 09:45:45;;;;;;;;;40.50;34.50;;;;;10.85;100.00;98706.91;6308074;20;2846191;-45
2024/03/11 09:48:14;;;;;;;;;41.00;36.00;;;;;11.08;100.00;98707.75;6275014;20;2831563;-45
2024/03/11 09:50:45;;;;;;;;;38.00;33.00;;;;;11.24;100.00;98706.53;6278039;20;2867017;-45
2024/03/11 09:53:18;;;;;;;;;39.67;32.67;;;;;11.15;100.00;98703.59;6309009;20;3586713;-44
2024/03/11 09:55:48;;;;;;;;;39.67;35.00;;;;;11.30;100.00;98700.69;6276210;20;2862849;-45
2024/03/11 09:58:20;;;;;;;;;47.33;37.33;;;;;11.15;100.00;98700.94;6305593;20;3619030;-47
2024/03/11 10:01:00;;;;;;;;;52.67;38.33;;;;;11.46;100.00;98705.69;6307532;20;3618018;-46
2024/03/11 10:03:32;;;;;;;;;50.00;40.00;;;;;11.48;100.00;98699.19;6306817;20;2857741;-45
2024/03/11 10:06:07;;;;;;;;;47.33;38.00;;;;;11.47;100.00;98697.47;6309868;20;3600389;-46
2024/03/11 10:08:39;;;;;;;;;45.50;37.00;;;;;11.59;100.00;98707.25;6277498;20;2845135;-44
2024/03/11 10:11:20;;;;;;;;;43.33;35.33;;;;;11.39;100.00;98706.16;6275412;20;2851580;-47
2024/03/11 10:13:56;;;;;;;;;45.00;36.00;;;;;11.35;100.00;98688.59;6311028;20;3595084;-49
2024/03/11 10:16:27;;;;;;;;;38.67;35.33;;;;;11.47;100.00;98702.84;6276536;20;2867986;-51
2024/03/11 10:19:13;;;;;;;;;38.67;32.67;;;;;11.56;100.00;98707.50;6314186;20;3603082;-51
2024/03/11 10:21:43;;;;;;;;;35.33;32.33;;;;;12.06;100.00;98705.19;6277147;20;2849237;-49
2024/03/11 10:24:15;;;;;;;;;39.00;35.00;;;;;11.98;100.00;98704.09;6314284;20;3590933;-51
2024/03/11 10:26:45;;;;;;;;;42.33;34.00;;;;;12.10;100.00;98694.16;6276415;20;2860696;-48
2024/03/11 10:29:33;;;;;;;;;41.33;32.67;;;;;12.49;100.00;98692.63;6306959;20;3585713;-47
2024/03/11 10:32:03;;;;;;;;;35.67;32.00;;;;;12.20;100.00;98689.72;6278133;20;3597225;-45
2024/03/11 10:34:34;;;;;;;;;40.67;33.67;;;;;12.37;100.00;98688.28;6273931;20;2877457;-49
2024/03/11 10:37:04;;;;;;;;;41.67;32.67;;;;;12.08;100.00;98680.81;6307660;20;3619029;-47
2024/03/11 10:39:42;;;;;;;;;37.33;31.67;;;;;11.78;100.00;98673.47;6280812;20;3589920;-49
2024/03/11 10:42:15;;;;;;;;;39.00;33.33;;;;;11.88;100.00;98662.84;6278002;20;3592135;-49
2024/03/11 10:44:45;;;;;;;;;48.00;39.33;;;;;12.16;100.00;98655.97;6274712;20;3599245;-45
2024/03/11 10:47:15;;;;;;;;;39.00;34.67;;;;;12.52;100.00;98660.91;6276766;20;3611732;-48
2024/03/11 10:49:47;;;;;;;;;31.67;30.33;;;;;13.23;100.00;98667.34;6306286;20;3587879;-48
2024/03/11 10:52:22;;;;;;;;;31.33;29.33;;;;;13.07;100.00;98667.88;6276114;20;2852473;-45
2024/03/11 10:54:54;;;;;;;;;29.33;28.00;;;;;12.35;100.00;98666.00;6304459;20;3586787;-49
2024/03/11 10:57:46;;;;;;;;;35.00;30.33;;;;;12.62;100.00;98660.97;6278466;20;3587797;-47
2024/03/11 11:03:12;;;;;;;;;31.33;30.33;;;;;12.84;100.00;98651.03;6276026;20;3587920;-46
2024/03/11 11:05:52;;;;;;;;;38.00;33.00;;;;;13.04;100.00;98646.59;6270692;20;2837127;-47
2024/03/11 11:08:23;;;;;;;;;35.67;32.00;;;;;12.74;100.00;98640.19;6278890;20;3605550;-48
2024/03/11 11:10:52;;;;;;;;;29.67;26.67;;;;;12.57;100.00;98643.50;6278005;20;3596187;-48
2024/03/11 11:13:24;;;;;;;;;33.33;31.00;;;;;12.62;100.00;98647.50;6274674;20;3606627;-48